createdAt,value
2019-04-21T00:00:13.805Z,1022.2
2019-04-21T00:01:25.996Z,1022.1
2019-04-21T00:02:38.191Z,1022.1
2019-04-21T00:03:50.394Z,1022.2
2019-04-21T00:05:02.585Z,1022.1
2019-04-21T00:06:14.779Z,1022.1
2019-04-21T00:07:26.974Z,1022.1
2019-04-21T00:08:39.169Z,1022.1
2019-04-21T00:09:51.372Z,1022.1
2019-04-21T00:11:03.562Z,1022.1
2019-04-21T00:12:15.759Z,1022.1
2019-04-21T00:14:40.144Z,1022.1
2019-04-21T00:15:52.334Z,1022.1
2019-04-21T00:17:04.540Z,1022.1
2019-04-21T00:18:16.728Z,1022.1
2019-04-21T00:19:28.092Z,1022
2019-04-21T00:20:41.126Z,1022.1
2019-04-21T00:21:53.000Z,1022.1
2019-04-21T00:23:05.535Z,1022
2019-04-21T00:24:17.709Z,1022
2019-04-21T00:25:29.900Z,1022
2019-04-21T00:26:42.098Z,1022
2019-04-21T00:27:54.293Z,1022
2019-04-21T00:29:06.488Z,1022.1
2019-04-21T00:30:18.679Z,1022
2019-04-21T00:31:30.876Z,1022
2019-04-21T00:32:43.071Z,1022.1
2019-04-21T00:33:55.273Z,1022
2019-04-21T00:35:07.459Z,1022
2019-04-21T00:36:19.065Z,1022
2019-04-21T00:37:31.858Z,1022
2019-04-21T00:38:44.044Z,1022
2019-04-21T00:39:56.257Z,1021.9
2019-04-21T00:41:08.768Z,1021.9
2019-04-21T00:42:20.636Z,1021.9
2019-04-21T00:43:32.825Z,1022
2019-04-21T00:44:45.002Z,1021.9
2019-04-21T00:45:57.223Z,1021.9
2019-04-21T00:47:09.414Z,1021.9
2019-04-21T00:48:21.622Z,1021.8
2019-04-21T00:49:33.802Z,1021.8
2019-04-21T00:50:45.099Z,1021.8
2019-04-21T00:51:58.226Z,1021.8
2019-04-21T00:53:10.391Z,1021.8
2019-04-21T00:54:22.586Z,1021.8
2019-04-21T00:55:34.078Z,1021.9
2019-04-21T00:56:46.981Z,1021.8
2019-04-21T00:57:59.172Z,1021.9
2019-04-21T00:59:11.358Z,1021.8
2019-04-21T01:00:23.567Z,1021.8
2019-04-21T01:02:47.959Z,1021.8
2019-04-21T01:04:00.149Z,1021.8
2019-04-21T01:05:12.340Z,1021.8
2019-04-21T01:06:24.537Z,1021.8
2019-04-21T01:07:36.729Z,1021.8
2019-04-21T01:08:48.933Z,1021.8
2019-04-21T01:10:01.119Z,1021.8
2019-04-21T01:11:13.319Z,1021.8
2019-04-21T01:12:25.539Z,1021.8
2019-04-21T01:13:37.708Z,1021.8
2019-04-21T01:14:49.899Z,1021.8
2019-04-21T01:16:02.103Z,1021.8
2019-04-21T01:17:14.291Z,1021.8
2019-04-21T01:18:26.483Z,1021.8
2019-04-21T01:19:38.688Z,1021.8
2019-04-21T01:20:50.088Z,1021.7
2019-04-21T01:22:03.109Z,1021.8
2019-04-21T01:23:15.274Z,1021.7
2019-04-21T01:24:27.464Z,1021.7
2019-04-21T01:25:39.000Z,1021.8
2019-04-21T01:26:51.854Z,1021.8
2019-04-21T01:28:04.057Z,1021.8
2019-04-21T01:29:16.245Z,1021.8
2019-04-21T01:30:28.442Z,1021.7
2019-04-21T01:31:40.641Z,1021.8
2019-04-21T01:32:52.083Z,1021.8
2019-04-21T01:34:05.000Z,1021.8
2019-04-21T01:35:17.222Z,1021.8
2019-04-21T01:36:29.422Z,1021.7
2019-04-21T01:37:41.618Z,1021.7
2019-04-21T01:38:53.806Z,1021.7
2019-04-21T01:40:06.009Z,1021.6
2019-04-21T01:41:18.202Z,1021.6
2019-04-21T01:42:30.397Z,1021.6
2019-04-21T01:44:54.798Z,1021.6
2019-04-21T01:46:06.986Z,1021.6
2019-04-21T01:47:19.174Z,1021.6
2019-04-21T01:48:31.391Z,1021.6
2019-04-21T01:49:43.569Z,1021.6
2019-04-21T01:50:55.077Z,1021.6
2019-04-21T01:52:07.962Z,1021.6
2019-04-21T01:53:20.151Z,1021.6
2019-04-21T01:54:32.341Z,1021.6
2019-04-21T01:55:44.552Z,1021.6
2019-04-21T01:56:56.743Z,1021.6
2019-04-21T01:58:08.933Z,1021.6
2019-04-21T01:59:21.121Z,1021.5
2019-04-21T02:00:33.313Z,1021.5
2019-04-21T02:01:45.509Z,1021.5
2019-04-21T02:02:57.696Z,1021.5
2019-04-21T02:04:09.894Z,1021.4
2019-04-21T02:05:22.083Z,1021.5
2019-04-21T02:06:34.277Z,1021.5
2019-04-21T02:07:46.470Z,1021.5
2019-04-21T02:08:58.670Z,1021.5
2019-04-21T02:10:10.864Z,1021.5
2019-04-21T02:11:23.052Z,1021.5
2019-04-21T02:12:35.247Z,1021.5
2019-04-21T02:13:47.451Z,1021.5
2019-04-21T02:14:59.635Z,1021.5
2019-04-21T02:16:11.822Z,1021.5
2019-04-21T02:17:24.018Z,1021.5
2019-04-21T02:18:36.213Z,1021.5
2019-04-21T02:19:48.409Z,1021.5
2019-04-21T02:21:00.059Z,1021.5
2019-04-21T02:22:12.799Z,1021.5
2019-04-21T02:23:25.052Z,1021.5
2019-04-21T02:24:37.189Z,1021.5
2019-04-21T02:25:49.379Z,1021.5
2019-04-21T02:27:01.568Z,1021.4
2019-04-21T02:28:13.767Z,1021.5
2019-04-21T02:29:25.958Z,1021.5
2019-04-21T02:30:38.157Z,1021.5
2019-04-21T02:31:50.355Z,1021.5
2019-04-21T02:33:02.539Z,1021.5
2019-04-21T02:34:14.753Z,1021.4
2019-04-21T02:35:26.930Z,1021.5
2019-04-21T02:37:51.316Z,1021.5
2019-04-21T02:39:03.502Z,1021.4
2019-04-21T02:40:15.700Z,1021.4
2019-04-21T02:41:27.895Z,1021.4
2019-04-21T02:42:40.085Z,1021.4
2019-04-21T02:43:52.282Z,1021.4
2019-04-21T02:45:04.481Z,1021.4
2019-04-21T02:46:16.666Z,1021.4
2019-04-21T02:47:28.872Z,1021.4
2019-04-21T02:48:41.056Z,1021.4
2019-04-21T02:51:05.448Z,1021.4
2019-04-21T02:52:17.632Z,1021.4
2019-04-21T02:53:29.823Z,1021.4
2019-04-21T02:54:42.028Z,1021.4
2019-04-21T02:57:06.408Z,1021.5
2019-04-21T02:58:18.604Z,1021.4
2019-04-21T02:59:30.799Z,1021.4
2019-04-21T03:00:42.988Z,1021.3
2019-04-21T03:01:55.185Z,1021.3
2019-04-21T03:04:19.568Z,1021.3
2019-04-21T03:05:31.759Z,1021.3
2019-04-21T03:06:43.095Z,1021.2
2019-04-21T03:07:56.144Z,1021.2
2019-04-21T03:09:08.342Z,1021.2
2019-04-21T03:10:20.540Z,1021.2
2019-04-21T03:11:32.074Z,1021.1
2019-04-21T03:12:44.936Z,1021.1
2019-04-21T03:13:57.116Z,1021.1
2019-04-21T03:15:09.317Z,1021.1
2019-04-21T03:16:21.509Z,1021.1
2019-04-21T03:17:33.070Z,1021.1
2019-04-21T03:18:45.089Z,1021.1
2019-04-21T03:19:58.092Z,1021.1
2019-04-21T03:21:10.283Z,1021
2019-04-21T03:22:22.480Z,1021.1
2019-04-21T03:23:34.666Z,1021.1
2019-04-21T03:24:46.862Z,1021.1
2019-04-21T03:25:59.054Z,1021.1
2019-04-21T03:27:11.252Z,1021
2019-04-21T03:28:23.446Z,1021
2019-04-21T03:29:35.640Z,1021
2019-04-21T03:30:47.082Z,1021
2019-04-21T03:32:00.023Z,1021
2019-04-21T03:33:12.221Z,1021
2019-04-21T03:34:24.413Z,1021
2019-04-21T03:35:36.612Z,1021
2019-04-21T03:36:48.080Z,1021
2019-04-21T03:38:00.990Z,1021
2019-04-21T03:39:13.186Z,1021
2019-04-21T03:40:25.378Z,1021
2019-04-21T03:41:37.581Z,1021
2019-04-21T03:42:49.776Z,1021
2019-04-21T03:44:01.951Z,1021
2019-04-21T03:46:26.347Z,1021
2019-04-21T03:47:38.544Z,1021
2019-04-21T03:48:50.737Z,1020.9
2019-04-21T03:50:02.924Z,1020.9
2019-04-21T03:52:27.318Z,1020.9
2019-04-21T03:53:39.500Z,1021
2019-04-21T03:54:51.704Z,1021
2019-04-21T03:56:03.892Z,1021
2019-04-21T03:57:16.088Z,1021
2019-04-21T03:58:28.284Z,1021
2019-04-21T03:59:40.479Z,1020.9
2019-04-21T04:00:52.664Z,1020.9
2019-04-21T04:03:17.050Z,1021
2019-04-21T04:04:29.245Z,1021
2019-04-21T04:05:41.440Z,1021
2019-04-21T04:06:53.630Z,1021
2019-04-21T04:08:05.828Z,1021
2019-04-21T04:09:18.024Z,1021
2019-04-21T04:10:30.021Z,1020.9
2019-04-21T04:11:42.405Z,1021
2019-04-21T04:12:54.607Z,1021
2019-04-21T04:15:18.990Z,1020.9
2019-04-21T04:16:31.179Z,1020.9
2019-04-21T04:18:55.572Z,1020.9
2019-04-21T04:20:07.000Z,1020.9
2019-04-21T04:21:19.959Z,1020.9
2019-04-21T04:22:32.169Z,1020.9
2019-04-21T04:23:44.348Z,1020.9
2019-04-21T04:24:56.540Z,1020.9
2019-04-21T04:27:20.000Z,1020.9
2019-04-21T04:28:33.121Z,1020.9
2019-04-21T04:29:45.323Z,1020.9
2019-04-21T04:30:57.509Z,1020.9
2019-04-21T04:32:09.705Z,1020.9
2019-04-21T04:33:21.897Z,1020.9
2019-04-21T04:34:34.106Z,1020.9
2019-04-21T04:35:46.289Z,1020.9
2019-04-21T04:36:58.479Z,1020.9
2019-04-21T04:39:22.870Z,1020.9
2019-04-21T04:40:35.052Z,1021
2019-04-21T04:41:47.024Z,1020.9
2019-04-21T04:42:59.452Z,1021
2019-04-21T04:44:11.640Z,1020.9
2019-04-21T04:45:23.083Z,1020.9
2019-04-21T04:46:36.034Z,1020.9
2019-04-21T04:47:48.214Z,1021
2019-04-21T04:49:00.413Z,1021
2019-04-21T04:51:24.799Z,1021
2019-04-21T04:52:36.999Z,1021
2019-04-21T04:53:49.186Z,1020.9
2019-04-21T04:55:01.379Z,1020.9
2019-04-21T04:56:13.573Z,1021
2019-04-21T04:57:25.769Z,1020.9
2019-04-21T04:58:37.959Z,1020.9
2019-04-21T04:59:50.179Z,1020.9
2019-04-21T05:01:02.349Z,1020.9
2019-04-21T05:03:26.734Z,1021
2019-04-21T05:04:38.929Z,1020.9
2019-04-21T05:05:51.121Z,1020.9
2019-04-21T05:07:03.331Z,1020.9
2019-04-21T05:08:15.513Z,1020.9
2019-04-21T05:09:27.699Z,1020.9
2019-04-21T05:10:39.088Z,1020.9
2019-04-21T05:11:52.090Z,1020.9
2019-04-21T05:13:04.287Z,1020.9
2019-04-21T05:16:40.864Z,1020.8
2019-04-21T05:17:53.054Z,1020.8
2019-04-21T05:19:05.242Z,1020.8
2019-04-21T05:21:29.630Z,1020.8
2019-04-21T05:22:41.083Z,1020.8
2019-04-21T05:23:54.023Z,1020.8
2019-04-21T05:25:06.219Z,1020.8
2019-04-21T05:26:18.415Z,1020.8
2019-04-21T05:27:30.608Z,1020.8
2019-04-21T05:28:42.801Z,1020.7
2019-04-21T05:29:54.991Z,1020.8
2019-04-21T05:31:07.182Z,1020.7
2019-04-21T05:32:19.381Z,1020.7
2019-04-21T05:33:31.593Z,1020.7
2019-04-21T05:35:55.095Z,1020.7
2019-04-21T05:37:08.151Z,1020.7
2019-04-21T05:38:20.353Z,1020.8
2019-04-21T05:39:32.541Z,1020.8
2019-04-21T05:40:44.733Z,1020.8
2019-04-21T05:41:56.940Z,1020.8
2019-04-21T05:43:09.124Z,1020.8
2019-04-21T05:44:21.342Z,1020.8
2019-04-21T05:45:33.505Z,1020.8
2019-04-21T05:47:57.894Z,1020.7
2019-04-21T05:49:10.084Z,1020.7
2019-04-21T05:50:22.283Z,1020.8
2019-04-21T05:51:34.474Z,1020.8
2019-04-21T05:52:46.670Z,1020.8
2019-04-21T05:53:58.870Z,1020.8
2019-04-21T05:55:11.061Z,1020.8
2019-04-21T05:56:23.249Z,1020.8
2019-04-21T05:57:35.443Z,1020.8
2019-04-21T05:58:47.643Z,1020.8
2019-04-21T05:59:59.829Z,1020.8
2019-04-21T06:01:12.026Z,1020.8
2019-04-21T06:02:24.220Z,1020.8
2019-04-21T06:03:36.419Z,1020.8
2019-04-21T06:04:48.610Z,1020.8
2019-04-21T06:06:00.801Z,1020.8
2019-04-21T06:07:12.999Z,1020.8
2019-04-21T06:08:25.187Z,1020.8
2019-04-21T06:09:37.381Z,1020.8
2019-04-21T06:12:01.772Z,1020.7
2019-04-21T06:13:13.965Z,1020.7
2019-04-21T06:14:26.164Z,1020.7
2019-04-21T06:15:38.358Z,1020.8
2019-04-21T06:16:50.548Z,1020.7
2019-04-21T06:18:02.740Z,1020.8
2019-04-21T06:19:14.931Z,1020.7
2019-04-21T06:20:27.127Z,1020.8
2019-04-21T06:21:39.315Z,1020.8
2019-04-21T06:22:51.520Z,1020.7
2019-04-21T06:24:03.000Z,1020.7
2019-04-21T06:25:15.896Z,1020.7
2019-04-21T06:27:40.329Z,1020.8
2019-04-21T06:28:52.482Z,1020.7
2019-04-21T06:30:04.000Z,1020.8
2019-04-21T06:31:16.868Z,1020.8
2019-04-21T06:32:29.065Z,1020.8
2019-04-21T06:33:41.256Z,1020.8
2019-04-21T06:34:53.447Z,1020.8
2019-04-21T06:36:05.643Z,1020.8
2019-04-21T06:38:30.036Z,1020.8
2019-04-21T06:39:42.219Z,1020.8
2019-04-21T06:40:54.420Z,1020.7
2019-04-21T06:43:18.806Z,1020.8
2019-04-21T06:44:30.992Z,1020.8
2019-04-21T06:45:43.190Z,1020.8
2019-04-21T06:46:55.385Z,1020.7
2019-04-21T06:48:07.572Z,1020.7
2019-04-21T06:49:19.000Z,1020.7
2019-04-21T06:50:31.096Z,1020.7
2019-04-21T06:51:44.001Z,1020.7
2019-04-21T06:52:56.373Z,1020.7
2019-04-21T06:54:08.544Z,1020.7
2019-04-21T06:55:20.754Z,1020.7
2019-04-21T06:56:32.930Z,1020.7
2019-04-21T06:57:45.012Z,1020.8
2019-04-21T06:58:57.318Z,1020.8
2019-04-21T07:00:09.526Z,1020.7
2019-04-21T07:01:21.710Z,1020.8
2019-04-21T07:02:33.916Z,1020.8
2019-04-21T07:03:46.100Z,1020.8
2019-04-21T07:04:58.286Z,1020.8
2019-04-21T07:06:10.501Z,1020.8
2019-04-21T07:07:22.682Z,1020.8
2019-04-21T07:08:34.892Z,1020.7
2019-04-21T07:09:47.063Z,1020.7
2019-04-21T07:10:59.255Z,1020.7
2019-04-21T07:12:11.576Z,1020.7
2019-04-21T07:13:23.643Z,1020.7
2019-04-21T07:14:35.843Z,1020.7
2019-04-21T07:17:00.280Z,1020.8
2019-04-21T07:18:12.422Z,1020.8
2019-04-21T07:19:24.620Z,1020.7
2019-04-21T07:20:36.810Z,1020.8
2019-04-21T07:21:49.001Z,1020.7
2019-04-21T07:23:01.194Z,1020.8
2019-04-21T07:24:13.392Z,1020.8
2019-04-21T07:25:25.594Z,1020.8
2019-04-21T07:26:37.799Z,1020.8
2019-04-21T07:27:49.972Z,1020.8
2019-04-21T07:29:02.168Z,1020.8
2019-04-21T07:30:14.440Z,1020.8
2019-04-21T07:31:26.555Z,1020.8
2019-04-21T07:32:38.745Z,1020.7
2019-04-21T07:33:50.940Z,1020.7
2019-04-21T07:35:03.136Z,1020.7
2019-04-21T07:36:15.328Z,1020.7
2019-04-21T07:37:27.525Z,1020.7
2019-04-21T07:38:39.709Z,1020.7
2019-04-21T07:39:51.909Z,1020.7
2019-04-21T07:41:04.102Z,1020.7
2019-04-21T07:42:16.290Z,1020.7
2019-04-21T07:43:28.500Z,1020.6
2019-04-21T07:44:40.678Z,1020.6
2019-04-21T07:45:52.872Z,1020.6
2019-04-21T07:47:05.071Z,1020.6
2019-04-21T07:48:17.261Z,1020.6
2019-04-21T07:49:29.454Z,1020.6
2019-04-21T07:50:41.658Z,1020.5
2019-04-21T07:51:53.843Z,1020.5
2019-04-21T07:53:06.036Z,1020.6
2019-04-21T07:54:18.251Z,1020.5
2019-04-21T07:55:30.423Z,1020.5
2019-04-21T07:56:42.655Z,1020.5
2019-04-21T07:57:54.818Z,1020.5
2019-04-21T07:59:07.013Z,1020.5
2019-04-21T08:00:19.201Z,1020.5
2019-04-21T08:01:31.395Z,1020.5
2019-04-21T08:02:43.585Z,1020.5
2019-04-21T08:03:55.777Z,1020.4
2019-04-21T08:05:07.975Z,1020.5
2019-04-21T08:06:20.163Z,1020.4
2019-04-21T08:07:32.361Z,1020.4
2019-04-21T08:08:44.570Z,1020.4
2019-04-21T08:09:56.744Z,1020.4
2019-04-21T08:11:08.009Z,1020.3
2019-04-21T08:12:21.001Z,1020.4
2019-04-21T08:13:33.330Z,1020.4
2019-04-21T08:14:45.523Z,1020.4
2019-04-21T08:15:57.711Z,1020.3
2019-04-21T08:17:09.912Z,1020.4
2019-04-21T08:18:22.106Z,1020.4
2019-04-21T08:19:34.296Z,1020.3
2019-04-21T08:20:46.489Z,1020.3
2019-04-21T08:21:58.686Z,1020.3
2019-04-21T08:23:10.880Z,1020.3
2019-04-21T08:24:23.072Z,1020.3
2019-04-21T08:25:35.265Z,1020.3
2019-04-21T08:27:59.658Z,1020.2
2019-04-21T08:29:11.840Z,1020.2
2019-04-21T08:31:36.241Z,1020.2
2019-04-21T08:32:48.427Z,1020.3
2019-04-21T08:34:00.620Z,1020.3
2019-04-21T08:35:12.815Z,1020.2
2019-04-21T08:36:25.001Z,1020.3
2019-04-21T08:37:37.199Z,1020.2
2019-04-21T08:38:49.039Z,1020.2
2019-04-21T08:41:13.781Z,1020.2
2019-04-21T08:42:25.979Z,1020.2
2019-04-21T08:43:38.180Z,1020.2
2019-04-21T08:44:50.435Z,1020.2
2019-04-21T08:46:02.558Z,1020.2
2019-04-21T08:47:14.803Z,1020.1
2019-04-21T08:48:26.947Z,1020.2
2019-04-21T08:49:39.135Z,1020.2
2019-04-21T08:50:51.337Z,1020.1
2019-04-21T08:52:03.532Z,1020.2
2019-04-21T08:53:15.723Z,1020.1
2019-04-21T08:54:27.913Z,1020.1
2019-04-21T08:55:40.109Z,1020.1
2019-04-21T08:56:52.302Z,1020.1
2019-04-21T08:58:04.494Z,1020.1
2019-04-21T08:59:16.068Z,1020.1
2019-04-21T09:00:28.887Z,1020.1
2019-04-21T09:01:41.007Z,1020
2019-04-21T09:02:53.282Z,1020
2019-04-21T09:04:05.492Z,1020
2019-04-21T09:05:17.657Z,1020
2019-04-21T09:06:29.846Z,1019.9
2019-04-21T09:07:42.063Z,1019.9
2019-04-21T09:08:54.241Z,1019.9
2019-04-21T09:10:06.429Z,1019.9
2019-04-21T09:11:18.632Z,1019.9
2019-04-21T09:12:30.817Z,1019.9
2019-04-21T09:13:43.002Z,1019.9
2019-04-21T09:14:55.212Z,1019.9
2019-04-21T09:16:07.004Z,1019.9
2019-04-21T09:17:19.059Z,1019.9
2019-04-21T09:18:31.782Z,1019.8
2019-04-21T09:19:43.978Z,1019.9
2019-04-21T09:20:56.016Z,1019.9
2019-04-21T09:22:08.369Z,1019.8
2019-04-21T09:23:20.569Z,1019.8
2019-04-21T09:24:32.760Z,1019.8
2019-04-21T09:28:09.332Z,1019.8
2019-04-21T09:29:21.537Z,1019.7
2019-04-21T09:30:33.720Z,1019.7
2019-04-21T09:31:45.092Z,1019.7
2019-04-21T09:32:58.119Z,1019.7
2019-04-21T09:34:10.320Z,1019.6
2019-04-21T09:35:22.501Z,1019.6
2019-04-21T09:36:34.694Z,1019.6
2019-04-21T09:37:46.897Z,1019.6
2019-04-21T09:40:11.269Z,1019.6
2019-04-21T09:41:23.472Z,1019.5
2019-04-21T09:42:35.662Z,1019.5
2019-04-21T09:43:47.858Z,1019.5
2019-04-21T09:45:00.046Z,1019.5
2019-04-21T09:46:12.243Z,1019.5
2019-04-21T09:47:24.449Z,1019.5
2019-04-21T09:48:36.637Z,1019.4
2019-04-21T09:49:48.081Z,1019.4
2019-04-21T09:51:01.015Z,1019.4
2019-04-21T09:52:13.209Z,1019.4
2019-04-21T09:53:25.409Z,1019.4
2019-04-21T09:54:37.597Z,1019.4
2019-04-21T09:55:49.007Z,1019.4
2019-04-21T09:57:01.988Z,1019.3
2019-04-21T09:58:14.180Z,1019.3
2019-04-21T09:59:26.372Z,1019.3
2019-04-21T10:00:38.568Z,1019.3
2019-04-21T10:01:51.129Z,1019.3
2019-04-21T10:03:02.954Z,1019.3
2019-04-21T10:04:15.145Z,1019.3
2019-04-21T10:05:27.337Z,1019.2
2019-04-21T10:06:39.534Z,1019.2
2019-04-21T10:07:51.759Z,1019.2
2019-04-21T10:09:03.917Z,1019.2
2019-04-21T10:10:16.119Z,1019.2
2019-04-21T10:11:28.304Z,1019.2
2019-04-21T10:12:40.505Z,1019.2
2019-04-21T10:13:52.713Z,1019.1
2019-04-21T10:15:04.884Z,1019.2
2019-04-21T10:16:17.084Z,1019.1
2019-04-21T10:17:29.298Z,1019.1
2019-04-21T10:19:53.659Z,1019.1
2019-04-21T10:21:05.086Z,1019.1
2019-04-21T10:22:18.044Z,1019.1
2019-04-21T10:23:30.241Z,1019
2019-04-21T10:24:42.438Z,1019
2019-04-21T10:25:54.628Z,1019
2019-04-21T10:27:06.083Z,1019
2019-04-21T10:28:19.002Z,1019
2019-04-21T10:29:31.021Z,1018.9
2019-04-21T10:30:43.404Z,1018.9
2019-04-21T10:31:55.600Z,1018.8
2019-04-21T10:33:07.793Z,1018.9
2019-04-21T10:34:19.987Z,1018.8
2019-04-21T10:35:32.017Z,1018.8
2019-04-21T10:36:44.371Z,1018.8
2019-04-21T10:37:56.562Z,1018.8
2019-04-21T10:40:20.951Z,1018.8
2019-04-21T10:41:33.148Z,1018.8
2019-04-21T10:42:45.345Z,1018.7
2019-04-21T10:43:57.528Z,1018.7
2019-04-21T10:45:09.729Z,1018.7
2019-04-21T10:46:21.918Z,1018.7
2019-04-21T10:47:34.111Z,1018.7
2019-04-21T10:48:46.307Z,1018.7
2019-04-21T10:49:58.499Z,1018.7
2019-04-21T10:51:10.703Z,1018.7
2019-04-21T10:52:22.893Z,1018.7
2019-04-21T10:53:35.080Z,1018.6
2019-04-21T10:54:47.272Z,1018.6
2019-04-21T10:55:59.047Z,1018.6
2019-04-21T10:57:11.663Z,1018.6
2019-04-21T10:58:23.008Z,1018.5
2019-04-21T10:59:36.152Z,1018.5
2019-04-21T11:00:48.385Z,1018.5
2019-04-21T11:02:00.438Z,1018.5
2019-04-21T11:03:12.062Z,1018.5
2019-04-21T11:04:24.824Z,1018.4
2019-04-21T11:05:37.080Z,1018.4
2019-04-21T11:06:49.216Z,1018.4
2019-04-21T11:08:01.407Z,1018.4
2019-04-21T11:09:13.596Z,1018.4
2019-04-21T11:10:25.804Z,1018.4
2019-04-21T11:11:37.984Z,1018.4
2019-04-21T11:12:50.178Z,1018.4
2019-04-21T11:15:14.005Z,1018.3
2019-04-21T11:16:26.771Z,1018.3
2019-04-21T11:17:38.978Z,1018.3
2019-04-21T11:18:51.150Z,1018.2
2019-04-21T11:20:03.360Z,1018.2
2019-04-21T11:21:15.549Z,1018.2
2019-04-21T11:23:39.921Z,1018.2
2019-04-21T11:24:52.116Z,1018.2
2019-04-21T11:26:04.350Z,1018.1
2019-04-21T11:27:16.502Z,1018.1
2019-04-21T11:28:28.705Z,1018.1
2019-04-21T11:29:40.897Z,1018.1
2019-04-21T11:30:53.009Z,1018.1
2019-04-21T11:32:05.280Z,1018.1
2019-04-21T11:33:17.478Z,1018.1
2019-04-21T11:34:29.673Z,1018
2019-04-21T11:35:41.865Z,1018
2019-04-21T11:36:54.066Z,1018.1
2019-04-21T11:39:18.455Z,1018
2019-04-21T11:40:30.647Z,1017.9
2019-04-21T11:41:42.848Z,1017.9
2019-04-21T11:42:55.034Z,1018
2019-04-21T11:44:07.236Z,1017.9
2019-04-21T11:45:19.004Z,1017.9
2019-04-21T11:46:31.624Z,1017.9
2019-04-21T11:47:43.082Z,1017.9
2019-04-21T11:48:56.011Z,1017.9
2019-04-21T11:50:08.203Z,1017.9
2019-04-21T11:51:20.396Z,1017.9
2019-04-21T11:52:32.596Z,1017.9
2019-04-21T11:54:56.981Z,1017.9
2019-04-21T11:56:09.178Z,1017.9
2019-04-21T11:57:21.380Z,1017.8
2019-04-21T11:58:33.574Z,1017.8
2019-04-21T11:59:45.763Z,1017.8
2019-04-21T12:00:57.956Z,1017.8
2019-04-21T12:02:10.162Z,1017.8
2019-04-21T12:03:22.353Z,1017.8
2019-04-21T12:04:34.555Z,1017.8
2019-04-21T12:05:46.741Z,1017.7
2019-04-21T12:06:58.936Z,1017.8
2019-04-21T12:08:11.132Z,1017.8
2019-04-21T12:09:23.333Z,1017.7
2019-04-21T12:10:35.517Z,1017.7
2019-04-21T12:11:47.720Z,1017.6
2019-04-21T12:12:59.909Z,1017.6
2019-04-21T12:14:12.103Z,1017.6
2019-04-21T12:15:24.307Z,1017.6
2019-04-21T12:16:36.492Z,1017.6
2019-04-21T12:17:48.695Z,1017.5
2019-04-21T12:19:00.895Z,1017.5
2019-04-21T12:20:13.086Z,1017.5
2019-04-21T12:21:25.002Z,1017.5
2019-04-21T12:22:37.474Z,1017.5
2019-04-21T12:23:49.674Z,1017.5
2019-04-21T12:25:01.861Z,1017.4
2019-04-21T12:26:14.067Z,1017.5
2019-04-21T12:28:38.450Z,1017.5
2019-04-21T12:29:50.646Z,1017.4
2019-04-21T12:31:02.838Z,1017.5
2019-04-21T12:32:15.036Z,1017.5
2019-04-21T12:33:27.233Z,1017.5
2019-04-21T12:34:39.422Z,1017.4
2019-04-21T12:35:51.611Z,1017.4
2019-04-21T12:37:03.818Z,1017.4
2019-04-21T12:38:16.018Z,1017.3
2019-04-21T12:39:28.283Z,1017.3
2019-04-21T12:40:40.398Z,1017.3
2019-04-21T12:41:52.591Z,1017.3
2019-04-21T12:43:04.795Z,1017.2
2019-04-21T12:44:16.982Z,1017.2
2019-04-21T12:45:29.001Z,1017.2
2019-04-21T12:46:41.366Z,1017.2
2019-04-21T12:47:53.568Z,1017.2
2019-04-21T12:49:05.762Z,1017.2
2019-04-21T12:52:42.348Z,1017.1
2019-04-21T12:53:54.543Z,1017.1
2019-04-21T12:55:06.732Z,1017.1
2019-04-21T12:56:18.935Z,1017.1
2019-04-21T12:57:31.124Z,1017
2019-04-21T12:58:43.000Z,1017.1
2019-04-21T12:59:55.516Z,1017.1
2019-04-21T13:01:07.718Z,1017
2019-04-21T13:02:19.906Z,1017
2019-04-21T13:03:32.100Z,1016.9
2019-04-21T13:04:44.300Z,1016.9
2019-04-21T13:05:56.528Z,1016.9
2019-04-21T13:07:08.685Z,1016.9
2019-04-21T13:08:20.887Z,1016.8
2019-04-21T13:09:33.074Z,1016.8
2019-04-21T13:10:45.271Z,1016.8
2019-04-21T13:11:57.461Z,1016.8
2019-04-21T13:13:09.680Z,1016.8
2019-04-21T13:14:21.857Z,1016.7
2019-04-21T13:16:46.247Z,1016.8
2019-04-21T13:17:58.443Z,1016.7
2019-04-21T13:19:10.640Z,1016.7
2019-04-21T13:20:22.834Z,1016.7
2019-04-21T13:21:35.035Z,1016.7
2019-04-21T13:22:47.221Z,1016.7
2019-04-21T13:23:59.419Z,1016.6
2019-04-21T13:25:11.610Z,1016.7
2019-04-21T13:26:23.080Z,1016.6
2019-04-21T13:27:36.000Z,1016.6
2019-04-21T13:28:48.198Z,1016.6
2019-04-21T13:30:00.397Z,1016.6
2019-04-21T13:31:12.583Z,1016.6
2019-04-21T13:32:24.781Z,1016.6
2019-04-21T13:33:36.981Z,1016.6
2019-04-21T13:34:49.016Z,1016.5
2019-04-21T13:36:01.365Z,1016.5
2019-04-21T13:37:13.000Z,1016.5
2019-04-21T13:38:25.754Z,1016.4
2019-04-21T13:39:37.954Z,1016.5
2019-04-21T13:40:50.014Z,1016.5
2019-04-21T13:42:02.336Z,1016.5
2019-04-21T13:43:14.535Z,1016.4
2019-04-21T13:44:26.734Z,1016.4
2019-04-21T13:45:38.009Z,1016.4
2019-04-21T13:46:51.122Z,1016.3
2019-04-21T13:48:03.343Z,1016.4
2019-04-21T13:49:15.510Z,1016.3
2019-04-21T13:50:27.714Z,1016.3
2019-04-21T13:51:39.899Z,1016.3
2019-04-21T13:52:52.105Z,1016.3
2019-04-21T13:54:04.287Z,1016.3
2019-04-21T13:55:16.492Z,1016.2
2019-04-21T13:56:28.679Z,1016.1
2019-04-21T13:57:40.882Z,1016.1
2019-04-21T13:58:53.071Z,1016.1
2019-04-21T14:00:05.270Z,1016.2
2019-04-21T14:01:17.459Z,1016.1
2019-04-21T14:02:29.658Z,1016.1
2019-04-21T14:03:41.851Z,1016.2
2019-04-21T14:04:54.040Z,1016.1
2019-04-21T14:06:06.237Z,1016.1
2019-04-21T14:07:18.437Z,1016.1
2019-04-21T14:08:30.632Z,1016.1
2019-04-21T14:09:42.828Z,1016
2019-04-21T14:10:55.018Z,1016
2019-04-21T14:12:07.021Z,1016.1
2019-04-21T14:13:19.410Z,1016
2019-04-21T14:14:31.600Z,1016
2019-04-21T14:16:56.004Z,1016
2019-04-21T14:18:08.186Z,1016
2019-04-21T14:19:20.038Z,1016
2019-04-21T14:20:32.058Z,1016
2019-04-21T14:21:44.772Z,1016
2019-04-21T14:22:56.974Z,1015.9
2019-04-21T14:25:21.365Z,1015.9
2019-04-21T14:26:33.560Z,1015.9
2019-04-21T14:28:57.953Z,1015.9
2019-04-21T14:30:10.136Z,1015.9
2019-04-21T14:31:22.338Z,1016
2019-04-21T14:32:34.052Z,1016
2019-04-21T14:33:46.072Z,1015.9
2019-04-21T14:34:58.922Z,1015.9
2019-04-21T14:36:11.119Z,1015.9
2019-04-21T14:38:35.513Z,1015.9
2019-04-21T14:39:47.703Z,1015.9
2019-04-21T14:40:59.090Z,1015.9
2019-04-21T14:42:12.095Z,1015.9
2019-04-21T14:43:24.028Z,1015.9
2019-04-21T14:44:36.486Z,1015.9
2019-04-21T14:45:48.679Z,1016
2019-04-21T14:47:00.877Z,1015.9
2019-04-21T14:48:13.071Z,1015.9
2019-04-21T14:49:25.283Z,1015.8
2019-04-21T14:50:37.468Z,1015.9
2019-04-21T14:51:49.655Z,1015.8
2019-04-21T14:53:01.865Z,1015.7
2019-04-21T14:54:14.044Z,1015.8
2019-04-21T14:55:26.024Z,1015.7
2019-04-21T14:56:38.449Z,1015.7
2019-04-21T14:57:50.631Z,1015.7
2019-04-21T14:59:02.828Z,1015.7
2019-04-21T15:00:15.020Z,1015.7
2019-04-21T15:01:27.217Z,1015.6
2019-04-21T15:02:39.415Z,1015.6
2019-04-21T15:05:03.797Z,1015.6
2019-04-21T15:06:16.000Z,1015.6
2019-04-21T15:07:28.195Z,1015.6
2019-04-21T15:08:40.394Z,1015.7
2019-04-21T15:09:52.582Z,1015.6
2019-04-21T15:11:04.780Z,1015.6
2019-04-21T15:12:16.976Z,1015.6
2019-04-21T15:13:29.016Z,1015.6
2019-04-21T15:14:41.364Z,1015.5
2019-04-21T15:15:53.554Z,1015.6
2019-04-21T15:17:05.752Z,1015.6
2019-04-21T15:18:17.009Z,1015.6
2019-04-21T15:19:30.149Z,1015.5
2019-04-21T15:20:42.337Z,1015.5
2019-04-21T15:21:54.546Z,1015.5
2019-04-21T15:23:06.730Z,1015.5
2019-04-21T15:24:18.928Z,1015.5
2019-04-21T15:25:31.115Z,1015.5
2019-04-21T15:26:43.030Z,1015.4
2019-04-21T15:27:55.540Z,1015.4
2019-04-21T15:29:07.707Z,1015.4
2019-04-21T15:30:19.896Z,1015.4
2019-04-21T15:31:32.091Z,1015.3
2019-04-21T15:33:56.484Z,1015.4
2019-04-21T15:35:08.682Z,1015.3
2019-04-21T15:36:20.879Z,1015.3
2019-04-21T15:37:33.085Z,1015.3
2019-04-21T15:38:45.812Z,1015.3
2019-04-21T15:39:57.460Z,1015.3
2019-04-21T15:41:09.655Z,1015.3
2019-04-21T15:42:21.857Z,1015.3
2019-04-21T15:43:34.047Z,1015.3
2019-04-21T15:44:46.250Z,1015.2
2019-04-21T15:47:10.630Z,1015.2
2019-04-21T15:48:22.823Z,1015.2
2019-04-21T15:49:35.027Z,1015.2
2019-04-21T15:50:47.219Z,1015.1
2019-04-21T15:51:59.408Z,1015.1
2019-04-21T15:53:11.614Z,1015.1
2019-04-21T15:54:23.800Z,1015.1
2019-04-21T15:55:36.001Z,1015.1
2019-04-21T15:56:48.192Z,1015.1
2019-04-21T15:58:00.391Z,1015.1
2019-04-21T15:59:12.599Z,1015.1
2019-04-21T16:00:24.782Z,1015.1
2019-04-21T16:01:36.979Z,1015.1
2019-04-21T16:02:49.200Z,1015
2019-04-21T16:04:01.383Z,1015
2019-04-21T16:05:13.056Z,1015